Time;durP1;ratioP1;P1;durP2;ratioP2;P2;SDS_P1;SDS_P2;PMS_P1;PMS_P2;Temp;Humidity;BMP_temperature;BMP_pressure;BME280_temperature;BME280_humidity;BME280_pressure;Samples;Min_cycle;Max_cycle;Signal;HPM_P1;HPM_P2
2021/03/10 00:01:36;;;;;;;4.53;4.13;;;2.50;92.10;;;;;;5113743;28;20202;-85
2021/03/10 00:04:02;;;;;;;5.40;3.87;;;2.50;92.30;;;;;;5113407;27;20226;-81
2021/03/10 00:06:29;;;;;;;4.90;3.97;;;2.60;92.20;;;;;;5112817;28;20238;-81
2021/03/10 00:08:55;;;;;;;4.67;3.60;;;2.50;92.40;;;;;;5112901;28;20297;-81
2021/03/10 00:11:22;;;;;;;3.27;3.07;;;2.60;91.90;;;;;;5112946;28;20237;-81
2021/03/10 00:13:48;;;;;;;5.00;3.90;;;2.60;91.90;;;;;;5112569;28;20596;-80
2021/03/10 00:16:14;;;;;;;6.27;3.93;;;2.60;91.30;;;;;;5112563;28;20205;-82
2021/03/10 00:18:40;;;;;;;7.87;5.00;;;2.60;91.30;;;;;;5112315;28;20209;-81
2021/03/10 00:21:06;;;;;;;8.47;6.43;;;2.60;91.70;;;;;;5112855;28;20206;-82
2021/03/10 00:23:32;;;;;;;8.83;6.03;;;2.50;91.60;;;;;;5112397;28;20217;-83
2021/03/10 00:25:59;;;;;;;7.83;6.50;;;2.50;91.70;;;;;;5112797;28;20642;-82
2021/03/10 00:28:26;;;;;;;7.50;5.27;;;2.40;91.70;;;;;;5113440;28;20206;-86
2021/03/10 00:30:52;;;;;;;5.50;5.00;;;2.30;92.10;;;;;;5113254;28;20254;-86
2021/03/10 00:33:18;;;;;;;4.93;4.43;;;2.30;92.20;;;;;;5113838;27;20214;-84
2021/03/10 00:35:44;;;;;;;5.80;4.50;;;2.40;91.90;;;;;;5113169;28;20209;-81
2021/03/10 00:38:10;;;;;;;7.60;4.83;;;2.40;92.10;;;;;;5112363;28;20202;-83
2021/03/10 00:40:36;;;;;;;6.00;4.57;;;2.30;92.10;;;;;;5111959;28;20654;-82
2021/03/10 00:43:02;;;;;;;5.70;4.73;;;2.30;92.40;;;;;;5112016;28;20206;-81
2021/03/10 00:45:30;;;;;;;7.07;5.07;;;2.30;92.50;;;;;;5112223;28;20217;-81
2021/03/10 00:47:57;;;;;;;5.03;4.53;;;2.20;92.60;;;;;;5111164;28;20590;-81
2021/03/10 00:50:23;;;;;;;5.23;4.50;;;2.20;92.60;;;;;;5112257;28;20276;-82
2021/03/10 00:52:50;;;;;;;4.13;3.73;;;2.20;92.40;;;;;;5111965;28;20255;-81
2021/03/10 00:55:16;;;;;;;4.67;4.23;;;2.10;92.80;;;;;;5112090;28;20206;-81
2021/03/10 00:57:42;;;;;;;4.83;4.07;;;2.10;93.00;;;;;;5111778;28;20213;-81
2021/03/10 01:00:10;;;;;;;4.47;4.10;;;2.00;93.40;;;;;;5111793;28;20206;-81
2021/03/10 01:02:37;;;;;;;5.87;3.63;;;2.00;93.60;;;;;;5111353;28;20700;-82
2021/03/10 01:05:05;;;;;;;4.70;3.70;;;2.10;93.40;;;;;;5111642;28;20692;-81
2021/03/10 01:07:31;;;;;;;3.90;3.60;;;2.00;93.30;;;;;;5111588;28;20279;-82
2021/03/10 01:09:57;;;;;;;4.47;3.80;;;2.00;92.90;;;;;;5111366;28;20562;-82
2021/03/10 01:12:23;;;;;;;4.30;3.80;;;2.00;92.80;;;;;;5111744;28;20256;-82
2021/03/10 01:14:49;;;;;;;6.40;4.13;;;2.10;92.80;;;;;;5111561;28;20206;-81
2021/03/10 01:17:16;;;;;;;4.60;4.10;;;2.00;93.00;;;;;;5111577;28;20206;-81
2021/03/10 01:19:43;;;;;;;4.20;3.80;;;2.10;93.00;;;;;;5112425;28;20358;-85
2021/03/10 01:22:09;;;;;;;4.27;3.80;;;2.00;92.70;;;;;;5113315;28;20202;-88
2021/03/10 01:24:35;;;;;;;4.33;3.93;;;2.00;92.70;;;;;;5113039;28;20632;-87
2021/03/10 01:27:01;;;;;;;4.43;4.03;;;2.00;92.80;;;;;;5113253;28;20251;-86
2021/03/10 01:29:28;;;;;;;4.40;4.00;;;1.90;92.60;;;;;;5113036;28;20624;-86
2021/03/10 01:31:54;;;;;;;4.70;4.00;;;1.90;92.50;;;;;;5112829;28;20219;-83
2021/03/10 01:34:20;;;;;;;4.80;4.40;;;1.90;92.60;;;;;;5111508;28;20213;-86
2021/03/10 01:36:47;;;;;;;4.33;3.90;;;1.90;92.90;;;;;;5111596;28;20239;-83
2021/03/10 01:39:13;;;;;;;4.27;3.87;;;1.80;93.30;;;;;;5111194;28;20210;-82
2021/03/10 01:41:39;;;;;;;4.67;3.70;;;1.80;93.40;;;;;;5110893;28;20699;-83
2021/03/10 01:44:06;;;;;;;5.70;4.13;;;1.80;93.70;;;;;;5111419;28;20217;-84
2021/03/10 01:46:39;;;;;;;4.07;3.77;;;1.70;93.80;;;;;;5111329;28;20225;-83
2021/03/10 01:49:05;;;;;;;4.43;4.03;;;1.70;94.00;;;;;;5111572;28;20232;-84
2021/03/10 01:51:31;;;;;;;4.57;3.80;;;1.60;94.00;;;;;;5111421;28;20202;-82
2021/03/10 01:53:58;;;;;;;5.97;3.70;;;1.60;93.80;;;;;;5111861;28;20206;-83
2021/03/10 01:56:26;;;;;;;5.07;3.70;;;1.60;93.90;;;;;;5111666;28;20255;-83
2021/03/10 01:58:53;;;;;;;4.63;4.10;;;1.60;93.90;;;;;;5111276;27;20210;-85
2021/03/10 02:01:19;;;;;;;4.50;3.60;;;1.60;94.10;;;;;;5111379;28;20202;-84
2021/03/10 02:03:45;;;;;;;4.40;3.60;;;1.60;94.00;;;;;;5110894;28;20234;-85
2021/03/10 02:06:20;;;;;;;4.07;3.63;;;1.60;93.70;;;;;;5111176;28;20228;-83
2021/03/10 02:08:51;;;;;;;5.07;3.73;;;1.60;93.60;;;;;;5110712;28;20262;-81
2021/03/10 02:11:30;;;;;;;4.43;3.73;;;1.60;93.70;;;;;;5110035;28;20936;-81
2021/03/10 02:14:12;;;;;;;4.10;3.70;;;1.60;93.70;;;;;;5105475;28;20210;-80
2021/03/10 02:16:44;;;;;;;4.10;3.70;;;1.60;93.60;;;;;;5089991;28;20207;-80
2021/03/10 02:19:56;;;;;;;5.63;3.87;;;1.60;93.80;;;;;;5090004;28;20202;-82
2021/03/10 02:22:37;;;;;;;4.87;4.10;;;1.60;93.90;;;;;;5090581;28;20567;-84
2021/03/10 02:25:13;;;;;;;4.43;4.03;;;1.50;94.10;;;;;;5090731;28;20218;-85
2021/03/10 02:27:46;;;;;;;4.63;4.00;;;1.50;94.70;;;;;;5090327;28;20218;-85
2021/03/10 02:30:16;;;;;;;4.63;4.07;;;1.50;94.90;;;;;;5090355;28;20264;-81
2021/03/10 02:32:50;;;;;;;5.57;4.13;;;1.50;95.50;;;;;;5089461;28;20195;-82
2021/03/10 02:35:16;;;;;;;5.00;4.07;;;1.40;95.20;;;;;;5089744;28;20207;-83
2021/03/10 02:37:45;;;;;;;5.00;4.60;;;1.40;95.30;;;;;;5088918;28;20206;-81
2021/03/10 02:40:14;;;;;;;4.37;3.97;;;1.40;95.20;;;;;;5089442;28;20633;-80
2021/03/10 02:42:41;;;;;;;4.93;4.30;;;1.40;94.80;;;;;;5089153;28;20209;-82
2021/03/10 02:45:09;;;;;;;4.87;3.87;;;1.40;94.70;;;;;;5089046;28;20217;-80
2021/03/10 02:47:37;;;;;;;4.20;3.77;;;1.40;94.60;;;;;;5089045;28;20234;-81
2021/03/10 02:50:06;;;;;;;4.80;4.17;;;1.40;94.50;;;;;;5089413;28;20210;-80
2021/03/10 02:52:33;;;;;;;5.00;4.00;;;1.40;94.50;;;;;;5089287;28;20335;-81
2021/03/10 02:55:00;;;;;;;4.93;4.43;;;1.40;94.90;;;;;;5089179;28;20285;-83
2021/03/10 02:57:26;;;;;;;5.23;4.73;;;1.30;94.80;;;;;;5089110;28;20203;-81
2021/03/10 02:59:53;;;;;;;5.80;4.70;;;1.30;94.80;;;;;;5089137;28;20218;-81
2021/03/10 03:02:20;;;;;;;5.20;4.43;;;1.30;94.80;;;;;;5088735;28;20720;-83
2021/03/10 03:04:46;;;;;;;5.20;4.50;;;1.30;94.80;;;;;;5088995;28;20207;-82
2021/03/10 03:07:13;;;;;;;6.53;4.77;;;1.30;94.90;;;;;;5089035;28;20280;-83
2021/03/10 03:09:39;;;;;;;6.57;4.63;;;1.30;95.00;;;;;;5088991;28;20589;-81
2021/03/10 03:12:07;;;;;;;6.30;4.40;;;1.20;95.30;;;;;;5088626;28;20238;-80
2021/03/10 03:14:38;;;;;;;5.03;4.23;;;1.20;95.30;;;;;;5089100;28;20206;-80
2021/03/10 03:17:05;;;;;;;6.77;4.60;;;1.20;95.20;;;;;;5089199;28;20195;-84
2021/03/10 03:19:33;;;;;;;7.30;5.40;;;1.10;95.10;;;;;;5088990;28;20202;-81
2021/03/10 03:22:00;;;;;;;7.67;4.73;;;1.10;95.30;;;;;;5088849;28;20579;-83
2021/03/10 03:24:27;;;;;;;6.93;4.80;;;1.10;95.20;;;;;;5088975;28;20292;-83
2021/03/10 03:26:55;;;;;;;6.53;4.90;;;1.10;95.20;;;;;;5088729;28;20608;-82
2021/03/10 03:29:22;;;;;;;6.17;5.03;;;1.10;95.10;;;;;;5089056;28;20202;-81
2021/03/10 03:31:48;;;;;;;5.97;4.77;;;1.20;95.00;;;;;;5088732;28;20691;-83
2021/03/10 03:34:15;;;;;;;7.07;4.97;;;1.20;94.90;;;;;;5088870;28;20206;-81
2021/03/10 03:36:42;;;;;;;7.20;5.27;;;1.20;95.00;;;;;;5088324;28;20256;-81
2021/03/10 03:39:09;;;;;;;7.47;4.83;;;1.10;95.10;;;;;;5088361;28;20206;-80
2021/03/10 03:41:35;;;;;;;6.83;5.03;;;1.10;95.20;;;;;;5089013;28;20212;-79
2021/03/10 03:44:03;;;;;;;11.13;5.17;;;1.10;95.20;;;;;;5089079;28;20234;-83
2021/03/10 03:46:31;;;;;;;5.53;4.60;;;1.10;94.60;;;;;;5088697;28;20207;-80
2021/03/10 03:48:58;;;;;;;5.30;4.27;;;1.10;94.30;;;;;;5089005;28;20238;-83
2021/03/10 03:51:25;;;;;;;5.57;4.90;;;1.20;94.00;;;;;;5089032;28;20672;-82
2021/03/10 03:54:00;;;;;;;5.87;4.83;;;1.20;93.80;;;;;;5088771;28;20206;-82
2021/03/10 03:56:27;;;;;;;6.27;4.67;;;1.10;94.20;;;;;;5089263;28;20244;-82
2021/03/10 03:58:53;;;;;;;5.87;4.60;;;1.20;93.80;;;;;;5088523;28;20208;-83
2021/03/10 04:01:20;;;;;;;6.80;5.07;;;1.10;94.20;;;;;;5089054;28;20669;-85
2021/03/10 04:03:46;;;;;;;7.97;4.60;;;1.10;93.90;;;;;;5088937;28;20291;-84
2021/03/10 04:06:13;;;;;;;6.10;4.67;;;1.10;94.00;;;;;;5091984;28;20202;-80
2021/03/10 04:08:40;;;;;;;7.03;4.83;;;1.10;93.80;;;;;;5096924;28;20231;-81
2021/03/10 04:11:08;;;;;;;6.23;5.17;;;1.10;93.80;;;;;;5098748;28;20663;-82
2021/03/10 04:13:34;;;;;;;5.57;4.53;;;1.20;93.60;;;;;;5101053;28;20194;-82
2021/03/10 04:16:01;;;;;;;7.23;5.10;;;1.20;93.40;;;;;;5097153;28;20256;-83
2021/03/10 04:18:27;;;;;;;9.83;4.97;;;1.20;93.40;;;;;;5091626;28;20207;-82
2021/03/10 04:20:53;;;;;;;6.73;5.07;;;1.20;93.30;;;;;;5105034;28;20218;-83
2021/03/10 04:23:19;;;;;;;5.43;4.67;;;1.30;93.20;;;;;;5106528;28;20675;-83
2021/03/10 04:25:46;;;;;;;8.67;5.07;;;1.30;93.10;;;;;;5108713;28;20206;-82
2021/03/10 04:28:13;;;;;;;6.07;4.73;;;1.20;93.50;;;;;;5108237;28;20707;-83
2021/03/10 04:30:39;;;;;;;6.57;5.17;;;1.00;94.10;;;;;;5108239;27;20209;-82
2021/03/10 04:33:05;;;;;;;6.80;5.00;;;0.90;94.40;;;;;;5091508;28;20202;-83
2021/03/10 04:35:32;;;;;;;7.73;5.23;;;0.70;94.70;;;;;;5098827;28;20202;-75
2021/03/10 04:37:58;;;;;;;6.70;4.80;;;0.70;95.00;;;;;;5107464;28;20681;-77
2021/03/10 04:40:24;;;;;;;5.77;4.70;;;0.70;95.10;;;;;;5104640;28;20224;-85
2021/03/10 04:42:50;;;;;;;8.33;4.97;;;0.70;95.00;;;;;;5107483;28;20667;-81
2021/03/10 04:45:18;;;;;;;7.93;4.73;;;0.70;94.80;;;;;;5108119;28;20980;-83
2021/03/10 04:47:45;;;;;;;10.73;5.50;;;0.70;94.50;;;;;;5107736;28;20767;-82
2021/03/10 04:50:12;;;;;;;6.30;4.50;;;0.70;94.30;;;;;;5107842;28;20278;-84
2021/03/10 04:52:38;;;;;;;7.70;5.07;;;0.80;94.40;;;;;;5107782;28;20206;-82
2021/03/10 04:55:07;;;;;;;7.13;5.27;;;0.80;94.90;;;;;;5107621;28;20229;-84
2021/03/10 04:57:33;;;;;;;6.97;5.33;;;0.80;94.80;;;;;;5108152;28;20555;-82
2021/03/10 04:59:59;;;;;;;7.07;4.87;;;0.70;94.60;;;;;;5092881;28;20241;-82
2021/03/10 05:02:26;;;;;;;6.63;5.10;;;0.60;94.80;;;;;;5105698;28;20241;-82
2021/03/10 05:04:52;;;;;;;6.60;4.77;;;0.60;94.80;;;;;;5092958;28;20217;-84
2021/03/10 05:07:19;;;;;;;8.07;5.13;;;0.60;95.00;;;;;;5096704;28;20218;-84
2021/03/10 05:09:45;;;;;;;7.23;5.20;;;0.60;95.00;;;;;;5097223;28;20223;-81
2021/03/10 05:12:11;;;;;;;5.20;4.70;;;0.50;95.00;;;;;;5099025;28;20207;-83
2021/03/10 05:14:37;;;;;;;5.40;4.90;;;0.50;95.30;;;;;;5098298;28;20194;-82
2021/03/10 05:17:03;;;;;;;7.27;5.37;;;0.50;95.10;;;;;;5098712;28;20217;-82
2021/03/10 05:19:30;;;;;;;8.43;5.60;;;0.40;95.40;;;;;;5103542;28;20251;-83
2021/03/10 05:21:56;;;;;;;7.60;5.60;;;0.40;95.30;;;;;;5096104;28;20256;-82
2021/03/10 05:24:22;;;;;;;6.30;5.20;;;0.40;95.40;;;;;;5100420;28;20194;-83
2021/03/10 05:26:49;;;;;;;8.03;5.50;;;0.40;95.60;;;;;;5094984;28;20697;-82
2021/03/10 05:29:15;;;;;;;6.37;5.33;;;0.50;95.70;;;;;;5100698;28;20198;-82
2021/03/10 05:31:41;;;;;;;5.83;5.23;;;0.50;95.80;;;;;;5095219;28;20264;-82
2021/03/10 05:34:07;;;;;;;9.40;6.07;;;0.40;95.90;;;;;;5098293;28;20199;-80
2021/03/10 05:36:36;;;;;;;7.53;5.60;;;0.50;96.10;;;;;;5099356;28;20621;-82
2021/03/10 05:39:04;;;;;;;8.37;5.87;;;0.40;96.10;;;;;;5101560;28;20198;-82
2021/03/10 05:41:30;;;;;;;7.90;5.57;;;0.50;96.30;;;;;;5097686;28;20195;-81
2021/03/10 05:43:58;;;;;;;8.50;5.93;;;0.40;96.30;;;;;;5096215;28;20682;-82
2021/03/10 05:46:24;;;;;;;8.03;6.00;;;0.50;96.30;;;;;;5101799;28;20228;-83
2021/03/10 05:48:50;;;;;;;9.33;6.03;;;0.40;96.40;;;;;;5095024;28;20223;-82
2021/03/10 05:51:18;;;;;;;7.97;5.87;;;0.40;96.50;;;;;;5096032;28;20199;-84
2021/03/10 05:53:45;;;;;;;8.10;5.43;;;0.40;96.60;;;;;;5091963;28;20206;-82
2021/03/10 05:56:13;;;;;;;13.10;6.07;;;0.30;96.70;;;;;;5103230;28;20204;-82
2021/03/10 05:58:39;;;;;;;14.00;6.37;;;0.40;96.80;;;;;;5106253;28;20195;-82
2021/03/10 06:01:06;;;;;;;6.83;5.17;;;0.40;96.70;;;;;;5102249;28;20205;-82
2021/03/10 06:03:32;;;;;;;8.33;5.93;;;0.40;96.70;;;;;;5099540;28;20280;-82
2021/03/10 06:06:00;;;;;;;8.67;6.20;;;0.40;96.90;;;;;;5100426;28;20759;-82
2021/03/10 06:08:27;;;;;;;10.43;6.40;;;0.50;96.90;;;;;;5096154;28;20366;-81
2021/03/10 06:10:55;;;;;;;6.87;5.83;;;0.60;97.20;;;;;;5097229;28;20202;-81
2021/03/10 06:13:22;;;;;;;8.93;6.50;;;0.70;96.90;;;;;;5106865;28;20203;-82
2021/03/10 06:15:49;;;;;;;9.80;6.73;;;0.70;96.30;;;;;;5106421;28;20194;-82
2021/03/10 06:18:27;;;;;;;9.37;6.10;;;0.80;95.20;;;;;;5100618;28;20206;-82
2021/03/10 06:21:07;;;;;;;9.60;6.40;;;0.90;94.70;;;;;;5102705;28;20199;-81
2021/03/10 06:23:34;;;;;;;9.00;6.10;;;0.90;94.60;;;;;;5097761;28;20317;-82
2021/03/10 06:26:02;;;;;;;10.70;7.63;;;1.00;94.60;;;;;;5100579;28;20203;-85
2021/03/10 06:28:36;;;;;;;10.67;7.70;;;1.10;94.60;;;;;;5098553;28;20230;-81
2021/03/10 06:31:02;;;;;;;8.60;6.60;;;1.10;94.50;;;;;;5094900;28;20672;-83
2021/03/10 06:33:28;;;;;;;10.67;6.50;;;1.10;94.10;;;;;;5099682;28;20725;-83
2021/03/10 06:35:55;;;;;;;11.07;6.90;;;1.20;94.00;;;;;;5099958;28;20214;-81
2021/03/10 06:38:21;;;;;;;8.37;6.50;;;1.10;94.50;;;;;;5094360;28;20198;-82
2021/03/10 06:40:49;;;;;;;12.10;6.70;;;1.10;94.90;;;;;;5095771;28;20218;-81
2021/03/10 06:43:16;;;;;;;11.57;6.50;;;1.00;95.10;;;;;;5097494;28;20199;-81
2021/03/10 06:45:42;;;;;;;8.83;6.57;;;1.10;95.10;;;;;;5102994;28;20271;-83
2021/03/10 06:48:19;;;;;;;7.87;6.23;;;1.10;94.70;;;;;;5109227;28;20278;-81
2021/03/10 06:50:46;;;;;;;7.63;6.43;;;1.20;94.20;;;;;;5109094;28;20202;-82
2021/03/10 06:53:12;;;;;;;9.77;6.77;;;1.20;94.30;;;;;;5098827;28;20210;-82
2021/03/10 06:55:40;;;;;;;10.17;6.43;;;1.20;93.60;;;;;;5102886;28;20664;-82
2021/03/10 06:58:07;;;;;;;13.07;7.37;;;1.30;93.30;;;;;;5109276;28;20203;-82
2021/03/10 07:00:35;;;;;;;8.50;6.47;;;1.30;93.30;;;;;;5099999;28;20203;-82
2021/03/10 07:03:01;;;;;;;13.73;6.87;;;1.40;93.20;;;;;;5099767;28;20261;-80
2021/03/10 07:05:29;;;;;;;9.00;6.77;;;1.50;92.80;;;;;;5088641;28;20211;-80
2021/03/10 07:07:56;;;;;;;8.27;6.50;;;1.60;92.80;;;;;;5105191;28;20229;-81
2021/03/10 07:10:26;;;;;;;11.23;6.90;;;1.70;92.80;;;;;;5088616;28;20202;-81
2021/03/10 07:12:56;;;;;;;10.03;7.03;;;1.70;93.20;;;;;;5088751;28;20297;-81
2021/03/10 07:15:22;;;;;;;11.30;7.07;;;1.70;93.10;;;;;;5088696;28;20203;-82
2021/03/10 07:17:50;;;;;;;7.53;6.70;;;1.80;93.00;;;;;;5103987;28;20223;-81
2021/03/10 07:20:17;;;;;;;8.93;6.97;;;1.80;93.00;;;;;;5091981;28;20217;-82
2021/03/10 07:22:51;;;;;;;12.37;7.33;;;1.90;92.90;;;;;;5105132;28;20202;-80
2021/03/10 07:25:26;;;;;;;12.23;7.97;;;2.00;92.80;;;;;;5108561;28;20191;-81
2021/03/10 07:27:55;;;;;;;13.17;7.43;;;2.10;92.30;;;;;;5108479;28;20225;-80
2021/03/10 07:30:32;;;;;;;10.47;7.50;;;2.30;92.30;;;;;;5108225;28;20712;-82
2021/03/10 07:33:08;;;;;;;8.70;6.83;;;2.40;92.30;;;;;;5108575;28;20266;-82
2021/03/10 07:35:46;;;;;;;12.47;7.30;;;2.50;91.70;;;;;;5102268;28;20198;-82
2021/03/10 07:38:13;;;;;;;7.90;7.10;;;2.60;91.50;;;;;;5096356;28;20256;-81
2021/03/10 07:40:39;;;;;;;10.93;7.47;;;2.70;91.10;;;;;;5103470;28;20222;-81
2021/03/10 07:43:05;;;;;;;10.00;7.60;;;2.80;91.20;;;;;;5096418;28;20194;-83
2021/03/10 07:45:42;;;;;;;11.33;8.20;;;2.80;91.00;;;;;;5103794;28;20202;-81
2021/03/10 07:48:10;;;;;;;9.50;7.17;;;2.90;90.50;;;;;;5105332;28;20220;-82
2021/03/10 07:50:42;;;;;;;10.87;7.30;;;3.00;90.30;;;;;;5097956;28;20201;-79
2021/03/10 07:53:09;;;;;;;15.03;12.40;;;3.10;90.60;;;;;;5094497;28;20661;-79
2021/03/10 07:55:42;;;;;;;14.13;7.13;;;3.20;91.00;;;;;;5100425;28;20286;-82
2021/03/10 07:58:08;;;;;;;9.90;7.13;;;3.30;91.10;;;;;;5111372;28;20281;-82
2021/03/10 08:00:35;;;;;;;12.57;7.37;;;3.40;90.40;;;;;;5093704;28;20237;-82
2021/03/10 08:03:01;;;;;;;15.83;7.53;;;3.50;90.30;;;;;;5091766;28;20615;-81
2021/03/10 08:05:29;;;;;;;13.53;7.73;;;3.60;90.70;;;;;;5110466;28;20206;-82
2021/03/10 08:08:13;;;;;;;13.63;7.50;;;3.70;90.70;;;;;;5112270;28;20226;-82
2021/03/10 08:10:41;;;;;;;11.57;7.00;;;3.80;90.30;;;;;;5100413;28;20202;-82
2021/03/10 08:13:15;;;;;;;11.60;7.67;;;3.90;90.10;;;;;;5099630;28;20198;-83
2021/03/10 08:15:41;;;;;;;10.10;8.13;;;4.00;90.00;;;;;;5103359;28;20198;-82
2021/03/10 08:18:07;;;;;;;10.37;7.93;;;4.10;90.30;;;;;;5101159;28;20195;-81
2021/03/10 08:20:37;;;;;;;21.57;8.80;;;4.20;90.40;;;;;;5108882;28;21344;-82
2021/03/10 08:23:03;;;;;;;13.53;7.50;;;4.30;89.00;;;;;;5103518;28;20585;-81
2021/03/10 08:25:30;;;;;;;9.50;7.10;;;4.30;88.70;;;;;;5103083;28;20209;-82
2021/03/10 08:27:56;;;;;;;9.30;6.20;;;4.40;89.30;;;;;;5105513;28;20230;-85
2021/03/10 08:30:24;;;;;;;10.17;7.30;;;4.40;89.90;;;;;;5111028;28;20336;-83
2021/03/10 08:32:51;;;;;;;10.67;6.73;;;4.50;90.60;;;;;;5111616;28;20726;-81
2021/03/10 08:35:19;;;;;;;11.47;7.27;;;4.60;88.80;;;;;;5104291;28;20283;-83
2021/03/10 08:37:54;;;;;;;7.80;6.40;;;4.70;87.90;;;;;;5111509;28;20198;-81
2021/03/10 08:40:25;;;;;;;10.10;6.60;;;4.80;86.70;;;;;;5111631;28;20525;-81
2021/03/10 08:42:52;;;;;;;9.40;6.03;;;4.90;85.60;;;;;;5102771;28;20195;-84
2021/03/10 08:45:23;;;;;;;10.23;6.50;;;5.00;86.00;;;;;;5111571;28;20195;-82
2021/03/10 08:47:57;;;;;;;9.10;6.63;;;5.10;85.00;;;;;;5111358;28;20700;-82
2021/03/10 08:50:28;;;;;;;8.77;6.23;;;5.30;85.50;;;;;;5108555;28;20258;-83
2021/03/10 08:52:55;;;;;;;7.57;5.60;;;5.40;84.70;;;;;;5101008;28;20623;-82
2021/03/10 08:55:24;;;;;;;10.30;5.80;;;5.40;83.40;;;;;;5099422;28;20748;-83
2021/03/10 08:57:50;;;;;;;12.70;6.23;;;5.50;81.60;;;;;;5101154;28;20267;-81
2021/03/10 09:00:20;;;;;;;7.53;5.60;;;5.60;82.00;;;;;;5098894;28;20206;-82
2021/03/10 09:02:49;;;;;;;8.83;5.50;;;5.60;80.10;;;;;;5101906;28;20834;-82
2021/03/10 09:05:16;;;;;;;9.23;5.40;;;5.70;79.60;;;;;;5098754;28;20596;-81
2021/03/10 09:07:45;;;;;;;8.27;5.17;;;5.80;79.30;;;;;;5095779;28;20708;-80
2021/03/10 09:10:18;;;;;;;5.93;5.33;;;6.00;79.20;;;;;;5100902;28;20199;-81
2021/03/10 09:12:46;;;;;;;7.77;5.27;;;6.00;79.90;;;;;;5098986;28;20190;-82
2021/03/10 09:15:14;;;;;;;7.57;5.43;;;6.10;80.00;;;;;;5106033;28;20209;-82
2021/03/10 09:17:44;;;;;;;5.93;5.00;;;6.10;79.00;;;;;;5101063;28;20202;-82
2021/03/10 09:20:21;;;;;;;8.17;5.70;;;6.10;79.70;;;;;;5100124;28;20190;-81
2021/03/10 09:22:48;;;;;;;7.00;5.27;;;6.10;78.60;;;;;;5095598;28;20190;-83
2021/03/10 09:25:16;;;;;;;5.23;4.73;;;6.20;76.90;;;;;;5099334;28;20554;-80
2021/03/10 09:27:43;;;;;;;6.23;5.27;;;6.30;76.50;;;;;;5098444;27;20232;-81
2021/03/10 09:30:12;;;;;;;5.50;5.00;;;6.40;77.50;;;;;;5101425;28;20285;-80
2021/03/10 09:32:41;;;;;;;5.30;4.60;;;6.50;76.60;;;;;;5095376;28;20201;-81
2021/03/10 09:35:19;;;;;;;9.53;5.13;;;6.60;77.20;;;;;;5097751;28;20655;-81
2021/03/10 09:37:48;;;;;;;7.53;4.60;;;6.60;79.60;;;;;;5090032;28;20281;-82
2021/03/10 09:40:17;;;;;;;6.83;4.57;;;6.70;77.20;;;;;;5090178;28;20247;-82
2021/03/10 09:42:46;;;;;;;6.63;4.73;;;6.80;74.30;;;;;;5090031;28;20268;-82
2021/03/10 09:45:22;;;;;;;4.77;3.70;;;6.90;72.60;;;;;;5089749;28;20210;-82
2021/03/10 09:47:49;;;;;;;4.03;3.63;;;7.00;72.10;;;;;;5088943;28;20215;-81
2021/03/10 09:50:28;;;;;;;4.50;4.10;;;7.10;72.30;;;;;;5089398;28;20206;-81
2021/03/10 09:52:54;;;;;;;5.23;4.10;;;7.20;71.60;;;;;;5089320;28;20290;-84
2021/03/10 09:55:23;;;;;;;5.27;4.37;;;7.30;74.00;;;;;;5089236;28;20206;-82
2021/03/10 09:58:01;;;;;;;3.63;3.33;;;7.40;72.10;;;;;;5089486;28;20602;-84
2021/03/10 10:00:27;;;;;;;3.57;3.07;;;7.30;71.60;;;;;;5090616;28;20222;-83
2021/03/10 10:02:54;;;;;;;4.53;3.30;;;7.30;69.10;;;;;;5089656;28;20601;-82
2021/03/10 10:05:25;;;;;;;3.70;3.40;;;7.40;70.40;;;;;;5089852;28;20202;-82
2021/03/10 10:07:52;;;;;;;3.33;3.10;;;7.50;69.30;;;;;;5090018;28;20234;-82
2021/03/10 10:10:19;;;;;;;3.80;3.50;;;7.60;68.00;;;;;;5090194;28;20207;-82
2021/03/10 10:12:48;;;;;;;4.10;3.57;;;7.80;68.90;;;;;;5090128;28;20207;-83
2021/03/10 10:15:17;;;;;;;4.33;3.90;;;7.70;68.00;;;;;;5089571;28;20252;-82
2021/03/10 10:17:45;;;;;;;4.83;3.50;;;7.70;68.80;;;;;;5089977;28;20207;-82
2021/03/10 10:20:13;;;;;;;3.73;3.43;;;7.70;69.20;;;;;;5089310;28;20657;-82
2021/03/10 10:22:39;;;;;;;3.33;2.87;;;7.80;72.00;;;;;;5089365;28;20294;-82
2021/03/10 10:25:07;;;;;;;3.90;3.40;;;7.70;69.00;;;;;;5089117;28;20575;-83
2021/03/10 10:27:34;;;;;;;3.63;3.10;;;7.60;66.60;;;;;;5089397;28;20222;-83
2021/03/10 10:30:01;;;;;;;3.53;3.23;;;7.60;66.60;;;;;;5089484;28;20198;-82
2021/03/10 10:32:27;;;;;;;3.40;3.10;;;7.50;64.70;;;;;;5089738;28;20211;-82
2021/03/10 10:34:55;;;;;;;2.97;2.77;;;7.50;62.60;;;;;;5089576;28;20256;-82
2021/03/10 10:37:21;;;;;;;5.37;3.43;;;7.40;62.90;;;;;;5089721;28;20232;-82
2021/03/10 10:39:48;;;;;;;3.57;3.27;;;7.50;64.50;;;;;;5089544;28;20227;-82
2021/03/10 10:42:15;;;;;;;4.63;2.90;;;7.60;66.10;;;;;;5089846;28;20198;-82
2021/03/10 10:44:41;;;;;;;4.50;3.20;;;7.70;64.90;;;;;;5089448;28;20212;-82
2021/03/10 10:47:08;;;;;;;3.53;3.23;;;7.90;64.50;;;;;;5089363;28;20209;-81
2021/03/10 10:49:35;;;;;;;6.53;3.30;;;7.90;66.10;;;;;;5089710;28;20207;-83
2021/03/10 10:52:03;;;;;;;5.73;3.00;;;8.00;65.60;;;;;;5088856;28;20302;-81
2021/03/10 10:54:29;;;;;;;3.13;2.83;;;8.00;65.90;;;;;;5089350;28;20203;-82
2021/03/10 10:56:55;;;;;;;5.60;3.20;;;8.00;65.00;;;;;;5089178;28;20213;-83
2021/03/10 10:59:21;;;;;;;3.37;3.07;;;8.00;63.20;;;;;;5089272;28;20260;-82
2021/03/10 11:01:48;;;;;;;4.07;3.00;;;8.00;61.60;;;;;;5088880;28;20206;-83
2021/03/10 11:04:15;;;;;;;3.73;2.83;;;8.00;61.20;;;;;;5089438;28;20198;-84
2021/03/10 11:06:41;;;;;;;3.60;3.30;;;8.00;61.30;;;;;;5089587;28;20225;-85
2021/03/10 11:09:07;;;;;;;4.53;3.40;;;8.00;61.00;;;;;;5088677;28;20227;-82
2021/03/10 11:11:33;;;;;;;3.80;3.40;;;8.00;59.20;;;;;;5088798;28;20202;-83
2021/03/10 11:14:00;;;;;;;3.87;3.57;;;8.10;61.10;;;;;;5088555;28;20214;-83
2021/03/10 11:16:26;;;;;;;3.03;2.80;;;8.20;60.60;;;;;;5089189;28;20210;-82
2021/03/10 11:18:53;;;;;;;4.53;3.20;;;8.20;58.50;;;;;;5089472;28;20210;-82
2021/03/10 11:21:21;;;;;;;4.23;3.30;;;8.20;58.20;;;;;;5088951;28;20213;-82
2021/03/10 11:23:47;;;;;;;3.83;3.50;;;8.30;60.00;;;;;;5088786;28;20213;-82
2021/03/10 11:26:14;;;;;;;4.73;3.77;;;8.30;61.20;;;;;;5088940;28;20207;-83
2021/03/10 11:28:40;;;;;;;3.90;3.43;;;8.40;60.70;;;;;;5088784;28;20241;-81
2021/03/10 11:31:07;;;;;;;6.03;3.67;;;8.40;60.60;;;;;;5088451;28;20617;-82
2021/03/10 11:33:34;;;;;;;6.03;3.70;;;8.30;59.10;;;;;;5092655;28;20214;-83
2021/03/10 11:36:01;;;;;;;3.77;3.47;;;8.40;59.90;;;;;;5093249;28;20315;-83
2021/03/10 11:38:28;;;;;;;5.13;3.93;;;8.60;62.10;;;;;;5093113;28;20291;-84
2021/03/10 11:40:55;;;;;;;5.53;4.57;;;8.80;61.20;;;;;;5092999;28;20211;-83
2021/03/10 11:43:21;;;;;;;5.00;4.00;;;8.80;61.90;;;;;;5093093;28;20214;-82
2021/03/10 11:45:48;;;;;;;4.50;4.10;;;8.80;61.30;;;;;;5092797;28;20696;-83
2021/03/10 11:48:14;;;;;;;4.37;3.97;;;8.90;61.00;;;;;;5092752;28;20708;-82
2021/03/10 11:50:41;;;;;;;4.57;4.10;;;9.00;59.90;;;;;;5092708;28;20210;-83
2021/03/10 11:53:08;;;;;;;5.63;4.03;;;9.00;59.50;;;;;;5092976;28;20226;-83
2021/03/10 11:55:36;;;;;;;6.27;4.30;;;9.00;60.50;;;;;;5093071;28;20207;-82
2021/03/10 11:58:02;;;;;;;4.67;4.23;;;9.10;60.40;;;;;;5092742;28;20213;-83
2021/03/10 12:00:29;;;;;;;4.83;4.10;;;9.20;60.40;;;;;;5092894;28;20237;-83
2021/03/10 12:02:55;;;;;;;5.53;4.47;;;9.10;59.00;;;;;;5092508;28;20241;-85
2021/03/10 12:05:22;;;;;;;3.93;3.63;;;9.20;59.40;;;;;;5092561;28;20202;-81
2021/03/10 12:07:49;;;;;;;4.13;3.83;;;9.40;60.00;;;;;;5092443;28;20604;-82
2021/03/10 12:10:16;;;;;;;4.37;3.97;;;9.50;62.10;;;;;;5092732;28;20210;-84
2021/03/10 12:12:44;;;;;;;5.93;4.63;;;9.60;62.70;;;;;;5092555;28;20264;-83
2021/03/10 12:15:11;;;;;;;5.00;4.33;;;9.50;61.20;;;;;;5092133;28;20207;-83
2021/03/10 12:17:39;;;;;;;5.00;4.60;;;9.60;60.50;;;;;;5092612;28;20249;-83
2021/03/10 12:20:07;;;;;;;4.57;4.17;;;9.60;61.70;;;;;;5092715;28;20284;-83
2021/03/10 12:22:33;;;;;;;4.97;4.47;;;9.70;63.00;;;;;;5092531;28;20207;-83
2021/03/10 12:25:00;;;;;;;5.20;4.80;;;9.90;61.20;;;;;;5091733;28;20696;-85
2021/03/10 12:27:26;;;;;;;5.23;4.73;;;9.80;58.00;;;;;;5092531;28;20234;-83
2021/03/10 12:29:55;;;;;;;5.53;4.80;;;9.90;57.40;;;;;;5092002;28;20214;-82
2021/03/10 12:32:21;;;;;;;5.70;5.10;;;9.80;61.00;;;;;;5092236;28;20203;-85
2021/03/10 12:34:50;;;;;;;5.93;5.00;;;9.90;58.90;;;;;;5092353;28;20230;-82
2021/03/10 12:37:16;;;;;;;5.13;4.33;;;10.10;58.90;;;;;;5092111;28;20215;-83
2021/03/10 12:39:42;;;;;;;17.73;6.17;;;10.20;58.40;;;;;;5092427;28;20319;-83
2021/03/10 12:42:09;;;;;;;5.73;5.23;;;10.30;58.20;;;;;;5091819;28;20664;-85
2021/03/10 12:44:36;;;;;;;6.13;5.03;;;10.40;60.20;;;;;;5090988;28;20206;-84
2021/03/10 12:47:03;;;;;;;5.63;5.13;;;10.30;58.50;;;;;;5092006;28;20217;-83
2021/03/10 12:49:30;;;;;;;5.10;4.70;;;10.30;57.00;;;;;;5091938;28;20329;-84
2021/03/10 12:51:56;;;;;;;6.50;5.80;;;10.40;56.40;;;;;;5091513;28;20207;-84
2021/03/10 12:54:23;;;;;;;6.30;5.80;;;10.50;57.90;;;;;;5092196;28;20207;-85
2021/03/10 12:56:50;;;;;;;9.93;6.50;;;10.50;59.20;;;;;;5091910;28;20202;-83
2021/03/10 12:59:16;;;;;;;6.90;6.30;;;10.60;58.00;;;;;;5091832;28;20683;-84